sensor_id;sensor_type;location;lat;lon;timestamp;P1;durP1;ratioP1;P2;durP2;ratioP2
10823;SDS011;39116;59.332;18.034;2022-12-29T00:01:48;11.05;;;5.95;;
10823;SDS011;39116;59.332;18.034;2022-12-29T00:04:10;8.48;;;5.38;;
10823;SDS011;39116;59.332;18.034;2022-12-29T00:06:34;8.77;;;5.43;;
10823;SDS011;39116;59.332;18.034;2022-12-29T00:08:56;11.13;;;6.25;;
10823;SDS011;39116;59.332;18.034;2022-12-29T00:11:18;10.48;;;5.68;;
10823;SDS011;39116;59.332;18.034;2022-12-29T00:13:40;10.27;;;5.68;;
10823;SDS011;39116;59.332;18.034;2022-12-29T00:16:19;8.00;;;5.22;;
10823;SDS011;39116;59.332;18.034;2022-12-29T00:18:40;8.23;;;5.25;;
10823;SDS011;39116;59.332;18.034;2022-12-29T00:21:02;9.65;;;5.30;;
10823;SDS011;39116;59.332;18.034;2022-12-29T00:23:42;9.50;;;5.47;;
10823;SDS011;39116;59.332;18.034;2022-12-29T00:26:21;8.13;;;4.80;;
10823;SDS011;39116;59.332;18.034;2022-12-29T00:29:01;9.30;;;5.03;;
10823;SDS011;39116;59.332;18.034;2022-12-29T00:31:40;9.13;;;5.32;;
10823;SDS011;39116;59.332;18.034;2022-12-29T00:34:19;9.23;;;5.38;;
10823;SDS011;39116;59.332;18.034;2022-12-29T00:36:58;8.85;;;5.25;;
10823;SDS011;39116;59.332;18.034;2022-12-29T00:39:21;8.73;;;5.70;;
10823;SDS011;39116;59.332;18.034;2022-12-29T00:42:02;10.00;;;5.85;;
10823;SDS011;39116;59.332;18.034;2022-12-29T00:44:53;10.00;;;5.22;;
10823;SDS011;39116;59.332;18.034;2022-12-29T00:47:14;10.43;;;5.53;;
10823;SDS011;39116;59.332;18.034;2022-12-29T00:49:36;8.38;;;4.70;;
10823;SDS011;39116;59.332;18.034;2022-12-29T00:51:57;11.00;;;5.90;;
10823;SDS011;39116;59.332;18.034;2022-12-29T00:54:21;9.63;;;4.78;;
10823;SDS011;39116;59.332;18.034;2022-12-29T00:56:42;7.88;;;4.80;;
10823;SDS011;39116;59.332;18.034;2022-12-29T00:59:05;12.02;;;5.75;;
10823;SDS011;39116;59.332;18.034;2022-12-29T01:01:27;11.68;;;5.25;;
10823;SDS011;39116;59.332;18.034;2022-12-29T01:03:48;8.33;;;5.23;;
10823;SDS011;39116;59.332;18.034;2022-12-29T01:06:10;9.03;;;5.20;;
10823;SDS011;39116;59.332;18.034;2022-12-29T01:08:32;9.57;;;5.13;;
10823;SDS011;39116;59.332;18.034;2022-12-29T01:11:02;9.18;;;4.78;;
10823;SDS011;39116;59.332;18.034;2022-12-29T01:13:23;11.13;;;5.13;;
10823;SDS011;39116;59.332;18.034;2022-12-29T01:15:48;10.50;;;5.33;;
10823;SDS011;39116;59.332;18.034;2022-12-29T01:18:10;10.73;;;4.93;;
10823;SDS011;39116;59.332;18.034;2022-12-29T01:20:32;12.23;;;5.68;;
10823;SDS011;39116;59.332;18.034;2022-12-29T01:22:53;10.55;;;4.93;;
10823;SDS011;39116;59.332;18.034;2022-12-29T01:25:15;9.45;;;5.00;;
10823;SDS011;39116;59.332;18.034;2022-12-29T01:27:38;7.82;;;4.45;;
10823;SDS011;39116;59.332;18.034;2022-12-29T01:30:00;10.35;;;5.00;;
10823;SDS011;39116;59.332;18.034;2022-12-29T01:32:22;10.35;;;5.60;;
10823;SDS011;39116;59.332;18.034;2022-12-29T01:34:43;11.60;;;6.22;;
10823;SDS011;39116;59.332;18.034;2022-12-29T01:37:05;9.73;;;5.15;;
10823;SDS011;39116;59.332;18.034;2022-12-29T01:39:26;10.00;;;5.00;;
10823;SDS011;39116;59.332;18.034;2022-12-29T01:41:48;9.57;;;5.07;;
10823;SDS011;39116;59.332;18.034;2022-12-29T01:46:51;12.27;;;5.10;;
10823;SDS011;39116;59.332;18.034;2022-12-29T01:49:14;9.07;;;4.55;;
10823;SDS011;39116;59.332;18.034;2022-12-29T01:51:37;9.63;;;4.28;;
10823;SDS011;39116;59.332;18.034;2022-12-29T01:54:01;10.15;;;5.20;;
10823;SDS011;39116;59.332;18.034;2022-12-29T01:56:24;8.63;;;4.75;;
10823;SDS011;39116;59.332;18.034;2022-12-29T01:58:46;7.88;;;4.30;;
10823;SDS011;39116;59.332;18.034;2022-12-29T02:01:10;7.22;;;4.40;;
10823;SDS011;39116;59.332;18.034;2022-12-29T02:03:33;8.15;;;4.20;;
10823;SDS011;39116;59.332;18.034;2022-12-29T02:05:56;8.77;;;4.63;;
10823;SDS011;39116;59.332;18.034;2022-12-29T02:08:19;6.53;;;4.15;;
10823;SDS011;39116;59.332;18.034;2022-12-29T02:10:41;11.38;;;4.88;;
10823;SDS011;39116;59.332;18.034;2022-12-29T02:13:04;10.13;;;4.70;;
10823;SDS011;39116;59.332;18.034;2022-12-29T02:15:31;8.45;;;4.55;;
10823;SDS011;39116;59.332;18.034;2022-12-29T02:18:05;8.57;;;4.63;;
10823;SDS011;39116;59.332;18.034;2022-12-29T02:20:41;8.80;;;4.88;;
10823;SDS011;39116;59.332;18.034;2022-12-29T02:25:53;9.07;;;4.75;;
10823;SDS011;39116;59.332;18.034;2022-12-29T02:28:29;8.68;;;4.60;;
10823;SDS011;39116;59.332;18.034;2022-12-29T02:31:01;8.30;;;4.80;;
10823;SDS011;39116;59.332;18.034;2022-12-29T02:33:30;8.70;;;4.82;;
10823;SDS011;39116;59.332;18.034;2022-12-29T02:35:56;10.63;;;4.80;;
10823;SDS011;39116;59.332;18.034;2022-12-29T02:38:25;10.48;;;5.07;;
10823;SDS011;39116;59.332;18.034;2022-12-29T02:40:50;8.23;;;4.18;;
10823;SDS011;39116;59.332;18.034;2022-12-29T02:43:14;9.23;;;4.65;;
10823;SDS011;39116;59.332;18.034;2022-12-29T02:45:40;9.45;;;4.22;;
10823;SDS011;39116;59.332;18.034;2022-12-29T02:48:07;9.15;;;4.70;;
10823;SDS011;39116;59.332;18.034;2022-12-29T02:50:31;9.30;;;4.45;;
10823;SDS011;39116;59.332;18.034;2022-12-29T02:52:54;10.07;;;5.50;;
10823;SDS011;39116;59.332;18.034;2022-12-29T02:55:18;8.90;;;4.93;;
10823;SDS011;39116;59.332;18.034;2022-12-29T02:57:39;6.53;;;4.38;;
10823;SDS011;39116;59.332;18.034;2022-12-29T03:00:03;8.57;;;5.15;;
10823;SDS011;39116;59.332;18.034;2022-12-29T03:02:33;8.63;;;4.85;;
10823;SDS011;39116;59.332;18.034;2022-12-29T03:07:39;7.88;;;5.03;;
10823;SDS011;39116;59.332;18.034;2022-12-29T03:10:04;8.27;;;5.18;;
10823;SDS011;39116;59.332;18.034;2022-12-29T03:12:30;10.43;;;5.45;;
10823;SDS011;39116;59.332;18.034;2022-12-29T03:15:11;9.45;;;5.13;;
10823;SDS011;39116;59.332;18.034;2022-12-29T03:17:52;9.13;;;4.97;;
10823;SDS011;39116;59.332;18.034;2022-12-29T03:20:17;11.05;;;5.38;;
10823;SDS011;39116;59.332;18.034;2022-12-29T03:22:41;12.60;;;6.30;;
10823;SDS011;39116;59.332;18.034;2022-12-29T03:25:05;12.05;;;5.75;;
10823;SDS011;39116;59.332;18.034;2022-12-29T03:27:31;9.77;;;5.60;;
10823;SDS011;39116;59.332;18.034;2022-12-29T03:29:55;10.10;;;5.70;;
10823;SDS011;39116;59.332;18.034;2022-12-29T03:32:18;10.35;;;5.97;;
10823;SDS011;39116;59.332;18.034;2022-12-29T03:34:40;10.77;;;6.28;;
10823;SDS011;39116;59.332;18.034;2022-12-29T03:37:02;11.00;;;6.38;;
10823;SDS011;39116;59.332;18.034;2022-12-29T03:39:27;12.27;;;7.05;;
10823;SDS011;39116;59.332;18.034;2022-12-29T03:41:50;12.32;;;6.53;;
10823;SDS011;39116;59.332;18.034;2022-12-29T03:44:12;13.23;;;7.20;;
10823;SDS011;39116;59.332;18.034;2022-12-29T03:46:34;10.75;;;6.80;;
10823;SDS011;39116;59.332;18.034;2022-12-29T03:48:55;11.18;;;6.38;;
10823;SDS011;39116;59.332;18.034;2022-12-29T03:51:17;9.88;;;6.30;;
10823;SDS011;39116;59.332;18.034;2022-12-29T03:53:39;13.93;;;7.10;;
10823;SDS011;39116;59.332;18.034;2022-12-29T03:56:02;9.45;;;6.68;;
10823;SDS011;39116;59.332;18.034;2022-12-29T03:58:24;13.57;;;6.07;;
10823;SDS011;39116;59.332;18.034;2022-12-29T04:00:45;8.60;;;5.90;;
10823;SDS011;39116;59.332;18.034;2022-12-29T04:03:07;12.50;;;7.50;;
10823;SDS011;39116;59.332;18.034;2022-12-29T04:05:28;9.90;;;6.22;;
10823;SDS011;39116;59.332;18.034;2022-12-29T04:07:51;9.35;;;5.80;;
10823;SDS011;39116;59.332;18.034;2022-12-29T04:10:12;8.52;;;6.57;;
10823;SDS011;39116;59.332;18.034;2022-12-29T04:12:35;11.57;;;5.93;;
10823;SDS011;39116;59.332;18.034;2022-12-29T04:14:57;8.13;;;6.38;;
10823;SDS011;39116;59.332;18.034;2022-12-29T04:17:19;8.63;;;6.10;;
10823;SDS011;39116;59.332;18.034;2022-12-29T04:19:40;9.32;;;6.45;;
10823;SDS011;39116;59.332;18.034;2022-12-29T04:22:02;8.98;;;6.63;;
10823;SDS011;39116;59.332;18.034;2022-12-29T04:24:23;8.38;;;6.18;;
10823;SDS011;39116;59.332;18.034;2022-12-29T04:26:45;10.52;;;6.47;;
10823;SDS011;39116;59.332;18.034;2022-12-29T04:29:08;10.45;;;6.70;;
10823;SDS011;39116;59.332;18.034;2022-12-29T04:31:30;9.48;;;6.80;;
10823;SDS011;39116;59.332;18.034;2022-12-29T04:33:51;9.48;;;6.78;;
10823;SDS011;39116;59.332;18.034;2022-12-29T04:36:13;8.63;;;6.47;;
10823;SDS011;39116;59.332;18.034;2022-12-29T04:38:35;8.73;;;6.57;;
10823;SDS011;39116;59.332;18.034;2022-12-29T04:40:58;8.55;;;6.53;;
10823;SDS011;39116;59.332;18.034;2022-12-29T04:43:20;10.75;;;6.53;;
10823;SDS011;39116;59.332;18.034;2022-12-29T04:45:44;11.07;;;6.97;;
10823;SDS011;39116;59.332;18.034;2022-12-29T04:48:05;9.90;;;6.55;;
10823;SDS011;39116;59.332;18.034;2022-12-29T04:50:27;7.75;;;6.32;;
10823;SDS011;39116;59.332;18.034;2022-12-29T04:52:49;8.13;;;6.28;;
10823;SDS011;39116;59.332;18.034;2022-12-29T04:55:10;8.45;;;6.82;;
10823;SDS011;39116;59.332;18.034;2022-12-29T04:57:32;8.93;;;6.50;;
10823;SDS011;39116;59.332;18.034;2022-12-29T04:59:54;8.07;;;6.63;;
10823;SDS011;39116;59.332;18.034;2022-12-29T05:02:17;9.27;;;6.43;;
10823;SDS011;39116;59.332;18.034;2022-12-29T05:04:38;7.80;;;6.28;;
10823;SDS011;39116;59.332;18.034;2022-12-29T05:07:00;8.75;;;7.05;;
10823;SDS011;39116;59.332;18.034;2022-12-29T05:09:22;8.57;;;6.07;;
10823;SDS011;39116;59.332;18.034;2022-12-29T05:11:44;8.15;;;6.00;;
10823;SDS011;39116;59.332;18.034;2022-12-29T05:14:06;10.77;;;6.38;;
10823;SDS011;39116;59.332;18.034;2022-12-29T05:16:27;9.27;;;6.00;;
10823;SDS011;39116;59.332;18.034;2022-12-29T05:18:50;7.90;;;6.03;;
10823;SDS011;39116;59.332;18.034;2022-12-29T05:21:12;8.98;;;6.05;;
10823;SDS011;39116;59.332;18.034;2022-12-29T05:23:34;7.22;;;5.97;;
10823;SDS011;39116;59.332;18.034;2022-12-29T05:25:55;9.27;;;6.05;;
10823;SDS011;39116;59.332;18.034;2022-12-29T05:28:17;7.10;;;6.05;;
10823;SDS011;39116;59.332;18.034;2022-12-29T05:30:38;12.80;;;6.43;;
10823;SDS011;39116;59.332;18.034;2022-12-29T05:33:00;7.75;;;5.78;;
10823;SDS011;39116;59.332;18.034;2022-12-29T05:35:23;8.35;;;5.57;;
10823;SDS011;39116;59.332;18.034;2022-12-29T05:37:45;9.15;;;6.38;;
10823;SDS011;39116;59.332;18.034;2022-12-29T05:40:07;7.43;;;5.85;;
10823;SDS011;39116;59.332;18.034;2022-12-29T05:42:29;9.40;;;5.43;;
10823;SDS011;39116;59.332;18.034;2022-12-29T05:44:50;8.10;;;5.57;;
10823;SDS011;39116;59.332;18.034;2022-12-29T05:47:13;9.98;;;5.80;;
10823;SDS011;39116;59.332;18.034;2022-12-29T05:49:35;7.03;;;5.20;;
10823;SDS011;39116;59.332;18.034;2022-12-29T05:51:58;8.23;;;5.45;;
10823;SDS011;39116;59.332;18.034;2022-12-29T05:54:20;8.68;;;5.85;;
10823;SDS011;39116;59.332;18.034;2022-12-29T05:56:41;7.72;;;5.78;;
10823;SDS011;39116;59.332;18.034;2022-12-29T05:59:03;6.88;;;5.50;;
10823;SDS011;39116;59.332;18.034;2022-12-29T06:01:24;10.07;;;5.80;;
10823;SDS011;39116;59.332;18.034;2022-12-29T06:03:46;8.82;;;5.88;;
10823;SDS011;39116;59.332;18.034;2022-12-29T06:06:08;10.77;;;5.93;;
10823;SDS011;39116;59.332;18.034;2022-12-29T06:08:31;10.30;;;5.70;;
10823;SDS011;39116;59.332;18.034;2022-12-29T06:10:52;8.32;;;5.57;;
10823;SDS011;39116;59.332;18.034;2022-12-29T06:13:14;7.18;;;5.57;;
10823;SDS011;39116;59.332;18.034;2022-12-29T06:15:36;9.60;;;5.40;;
10823;SDS011;39116;59.332;18.034;2022-12-29T06:17:58;9.05;;;6.00;;
10823;SDS011;39116;59.332;18.034;2022-12-29T06:20:19;7.95;;;5.65;;
10823;SDS011;39116;59.332;18.034;2022-12-29T06:22:41;9.73;;;5.43;;
10823;SDS011;39116;59.332;18.034;2022-12-29T06:25:04;10.73;;;5.90;;
10823;SDS011;39116;59.332;18.034;2022-12-29T06:27:26;10.55;;;6.13;;
10823;SDS011;39116;59.332;18.034;2022-12-29T06:29:48;10.43;;;5.90;;
10823;SDS011;39116;59.332;18.034;2022-12-29T06:32:10;10.43;;;5.75;;
10823;SDS011;39116;59.332;18.034;2022-12-29T06:34:31;10.07;;;6.15;;
10823;SDS011;39116;59.332;18.034;2022-12-29T06:36:53;11.43;;;5.93;;
10823;SDS011;39116;59.332;18.034;2022-12-29T06:39:15;11.32;;;5.78;;
10823;SDS011;39116;59.332;18.034;2022-12-29T06:41:38;15.07;;;6.45;;
10823;SDS011;39116;59.332;18.034;2022-12-29T06:43:59;10.80;;;6.20;;
10823;SDS011;39116;59.332;18.034;2022-12-29T06:46:21;12.60;;;6.50;;
10823;SDS011;39116;59.332;18.034;2022-12-29T06:48:42;13.38;;;7.03;;
10823;SDS011;39116;59.332;18.034;2022-12-29T06:51:04;12.65;;;6.43;;
10823;SDS011;39116;59.332;18.034;2022-12-29T06:53:26;11.65;;;6.32;;
10823;SDS011;39116;59.332;18.034;2022-12-29T06:55:47;11.13;;;6.45;;
10823;SDS011;39116;59.332;18.034;2022-12-29T06:58:10;10.85;;;6.22;;
10823;SDS011;39116;59.332;18.034;2022-12-29T07:00:32;12.15;;;6.88;;
10823;SDS011;39116;59.332;18.034;2022-12-29T07:02:54;12.43;;;6.78;;
10823;SDS011;39116;59.332;18.034;2022-12-29T07:05:16;11.68;;;7.10;;
10823;SDS011;39116;59.332;18.034;2022-12-29T07:07:37;17.50;;;8.10;;
10823;SDS011;39116;59.332;18.034;2022-12-29T07:09:59;15.32;;;7.80;;
10823;SDS011;39116;59.332;18.034;2022-12-29T07:12:21;18.00;;;8.85;;
10823;SDS011;39116;59.332;18.034;2022-12-29T07:14:44;20.25;;;8.48;;
10823;SDS011;39116;59.332;18.034;2022-12-29T07:17:05;26.83;;;9.27;;
10823;SDS011;39116;59.332;18.034;2022-12-29T07:19:27;25.05;;;8.50;;
10823;SDS011;39116;59.332;18.034;2022-12-29T07:21:49;21.48;;;9.25;;
10823;SDS011;39116;59.332;18.034;2022-12-29T07:24:10;25.65;;;8.88;;
10823;SDS011;39116;59.332;18.034;2022-12-29T07:26:32;28.58;;;9.77;;
10823;SDS011;39116;59.332;18.034;2022-12-29T07:28:53;28.45;;;10.30;;
10823;SDS011;39116;59.332;18.034;2022-12-29T07:31:18;28.95;;;11.18;;
10823;SDS011;39116;59.332;18.034;2022-12-29T07:33:39;24.70;;;10.23;;
10823;SDS011;39116;59.332;18.034;2022-12-29T07:36:01;24.23;;;9.98;;
10823;SDS011;39116;59.332;18.034;2022-12-29T07:38:23;32.35;;;10.88;;
10823;SDS011;39116;59.332;18.034;2022-12-29T07:40:44;23.98;;;10.10;;
10823;SDS011;39116;59.332;18.034;2022-12-29T07:43:06;22.10;;;9.95;;
10823;SDS011;39116;59.332;18.034;2022-12-29T07:45:27;26.83;;;9.68;;
10823;SDS011;39116;59.332;18.034;2022-12-29T07:47:50;24.55;;;9.68;;
10823;SDS011;39116;59.332;18.034;2022-12-29T07:50:12;18.70;;;8.85;;
10823;SDS011;39116;59.332;18.034;2022-12-29T07:52:34;18.75;;;8.38;;
10823;SDS011;39116;59.332;18.034;2022-12-29T07:54:55;17.77;;;8.70;;
10823;SDS011;39116;59.332;18.034;2022-12-29T07:57:17;17.13;;;7.97;;
10823;SDS011;39116;59.332;18.034;2022-12-29T07:59:39;15.98;;;8.52;;
10823;SDS011;39116;59.332;18.034;2022-12-29T08:02:00;20.25;;;7.93;;
10823;SDS011;39116;59.332;18.034;2022-12-29T08:04:23;15.70;;;7.95;;
10823;SDS011;39116;59.332;18.034;2022-12-29T08:06:45;15.25;;;7.38;;
10823;SDS011;39116;59.332;18.034;2022-12-29T08:09:07;17.05;;;6.40;;
10823;SDS011;39116;59.332;18.034;2022-12-29T08:11:29;13.70;;;7.28;;
10823;SDS011;39116;59.332;18.034;2022-12-29T08:13:50;13.23;;;7.38;;
10823;SDS011;39116;59.332;18.034;2022-12-29T08:16:12;9.27;;;6.28;;
10823;SDS011;39116;59.332;18.034;2022-12-29T08:18:34;12.98;;;5.72;;
10823;SDS011;39116;59.332;18.034;2022-12-29T08:20:57;10.02;;;5.85;;
10823;SDS011;39116;59.332;18.034;2022-12-29T08:23:22;9.32;;;5.30;;
10823;SDS011;39116;59.332;18.034;2022-12-29T08:25:43;12.90;;;5.78;;
10823;SDS011;39116;59.332;18.034;2022-12-29T08:28:05;11.82;;;5.07;;
10823;SDS011;39116;59.332;18.034;2022-12-29T08:30:27;12.55;;;5.30;;
10823;SDS011;39116;59.332;18.034;2022-12-29T08:32:48;8.40;;;4.63;;
10823;SDS011;39116;59.332;18.034;2022-12-29T08:35:10;7.05;;;4.45;;
10823;SDS011;39116;59.332;18.034;2022-12-29T08:37:34;8.18;;;4.55;;
10823;SDS011;39116;59.332;18.034;2022-12-29T08:39:56;8.65;;;4.38;;
10823;SDS011;39116;59.332;18.034;2022-12-29T08:42:17;6.82;;;4.38;;
10823;SDS011;39116;59.332;18.034;2022-12-29T08:44:39;9.98;;;5.13;;
10823;SDS011;39116;59.332;18.034;2022-12-29T08:47:01;7.90;;;4.43;;
10823;SDS011;39116;59.332;18.034;2022-12-29T08:49:22;8.23;;;5.00;;
10823;SDS011;39116;59.332;18.034;2022-12-29T08:51:44;13.80;;;5.20;;
10823;SDS011;39116;59.332;18.034;2022-12-29T08:54:07;8.57;;;5.32;;
10823;SDS011;39116;59.332;18.034;2022-12-29T08:56:29;7.28;;;4.63;;
10823;SDS011;39116;59.332;18.034;2022-12-29T08:58:50;8.57;;;5.10;;
10823;SDS011;39116;59.332;18.034;2022-12-29T09:01:12;7.60;;;4.30;;
10823;SDS011;39116;59.332;18.034;2022-12-29T09:03:34;9.10;;;4.82;;
10823;SDS011;39116;59.332;18.034;2022-12-29T09:05:55;7.47;;;4.22;;
10823;SDS011;39116;59.332;18.034;2022-12-29T09:08:17;8.60;;;4.20;;
10823;SDS011;39116;59.332;18.034;2022-12-29T09:10:40;6.65;;;3.58;;
10823;SDS011;39116;59.332;18.034;2022-12-29T09:13:02;6.95;;;4.22;;
10823;SDS011;39116;59.332;18.034;2022-12-29T09:15:23;4.57;;;3.42;;
10823;SDS011;39116;59.332;18.034;2022-12-29T09:17:45;4.05;;;3.15;;
10823;SDS011;39116;59.332;18.034;2022-12-29T09:20:07;3.55;;;2.85;;
10823;SDS011;39116;59.332;18.034;2022-12-29T09:22:29;4.80;;;3.55;;
10823;SDS011;39116;59.332;18.034;2022-12-29T09:24:51;3.45;;;2.55;;
10823;SDS011;39116;59.332;18.034;2022-12-29T09:27:14;4.10;;;2.72;;
10823;SDS011;39116;59.332;18.034;2022-12-29T09:29:35;3.22;;;2.55;;
10823;SDS011;39116;59.332;18.034;2022-12-29T09:31:57;3.70;;;2.33;;
10823;SDS011;39116;59.332;18.034;2022-12-29T09:34:18;2.55;;;2.00;;
10823;SDS011;39116;59.332;18.034;2022-12-29T09:36:40;2.28;;;1.80;;
10823;SDS011;39116;59.332;18.034;2022-12-29T09:39:02;1.60;;;1.50;;
10823;SDS011;39116;59.332;18.034;2022-12-29T09:41:24;2.30;;;1.80;;
10823;SDS011;39116;59.332;18.034;2022-12-29T09:43:58;3.03;;;1.73;;
10823;SDS011;39116;59.332;18.034;2022-12-29T09:46:23;2.80;;;2.30;;
10823;SDS011;39116;59.332;18.034;2022-12-29T09:48:46;3.10;;;2.40;;
10823;SDS011;39116;59.332;18.034;2022-12-29T09:51:10;2.60;;;2.40;;
10823;SDS011;39116;59.332;18.034;2022-12-29T09:53:34;3.30;;;2.45;;
10823;SDS011;39116;59.332;18.034;2022-12-29T09:58:24;4.32;;;3.20;;
10823;SDS011;39116;59.332;18.034;2022-12-29T10:00:49;5.22;;;3.35;;
10823;SDS011;39116;59.332;18.034;2022-12-29T10:03:13;5.80;;;3.80;;
10823;SDS011;39116;59.332;18.034;2022-12-29T10:05:38;11.73;;;4.28;;
10823;SDS011;39116;59.332;18.034;2022-12-29T10:08:04;6.38;;;4.35;;
10823;SDS011;39116;59.332;18.034;2022-12-29T10:10:30;8.00;;;5.10;;
10823;SDS011;39116;59.332;18.034;2022-12-29T10:12:58;9.52;;;5.30;;
10823;SDS011;39116;59.332;18.034;2022-12-29T10:15:29;7.38;;;5.18;;
10823;SDS011;39116;59.332;18.034;2022-12-29T10:17:54;9.40;;;5.65;;
10823;SDS011;39116;59.332;18.034;2022-12-29T10:20:19;10.65;;;5.38;;
10823;SDS011;39116;59.332;18.034;2022-12-29T10:22:45;6.80;;;5.10;;
10823;SDS011;39116;59.332;18.034;2022-12-29T10:25:12;7.28;;;5.28;;
10823;SDS011;39116;59.332;18.034;2022-12-29T10:27:36;7.80;;;4.95;;
10823;SDS011;39116;59.332;18.034;2022-12-29T10:29:58;9.52;;;5.18;;
10823;SDS011;39116;59.332;18.034;2022-12-29T10:32:23;6.53;;;4.40;;
10823;SDS011;39116;59.332;18.034;2022-12-29T10:34:48;6.00;;;4.03;;
10823;SDS011;39116;59.332;18.034;2022-12-29T10:37:11;7.13;;;3.97;;
10823;SDS011;39116;59.332;18.034;2022-12-29T10:39:37;5.22;;;3.58;;
10823;SDS011;39116;59.332;18.034;2022-12-29T10:42:03;6.13;;;3.80;;
10823;SDS011;39116;59.332;18.034;2022-12-29T10:44:26;5.78;;;3.78;;
10823;SDS011;39116;59.332;18.034;2022-12-29T10:46:53;5.82;;;4.38;;
10823;SDS011;39116;59.332;18.034;2022-12-29T10:49:16;5.55;;;3.42;;
10823;SDS011;39116;59.332;18.034;2022-12-29T10:51:41;6.32;;;4.07;;
10823;SDS011;39116;59.332;18.034;2022-12-29T10:54:04;7.82;;;3.80;;
10823;SDS011;39116;59.332;18.034;2022-12-29T10:56:29;6.78;;;3.70;;
10823;SDS011;39116;59.332;18.034;2022-12-29T10:58:53;4.97;;;3.63;;
10823;SDS011;39116;59.332;18.034;2022-12-29T11:01:15;4.97;;;3.40;;
10823;SDS011;39116;59.332;18.034;2022-12-29T11:03:45;4.90;;;3.00;;
10823;SDS011;39116;59.332;18.034;2022-12-29T11:06:10;4.28;;;2.85;;
10823;SDS011;39116;59.332;18.034;2022-12-29T11:08:37;3.58;;;3.00;;
10823;SDS011;39116;59.332;18.034;2022-12-29T11:11:01;3.78;;;3.00;;
10823;SDS011;39116;59.332;18.034;2022-12-29T11:13:24;3.00;;;2.58;;
10823;SDS011;39116;59.332;18.034;2022-12-29T11:15:47;3.90;;;2.65;;
10823;SDS011;39116;59.332;18.034;2022-12-29T11:18:19;5.05;;;2.47;;
10823;SDS011;39116;59.332;18.034;2022-12-29T11:20:41;3.85;;;2.83;;
10823;SDS011;39116;59.332;18.034;2022-12-29T11:23:04;3.03;;;2.22;;
10823;SDS011;39116;59.332;18.034;2022-12-29T11:25:28;3.20;;;2.38;;
10823;SDS011;39116;59.332;18.034;2022-12-29T11:27:57;3.00;;;1.95;;
10823;SDS011;39116;59.332;18.034;2022-12-29T11:30:22;2.92;;;2.08;;
10823;SDS011;39116;59.332;18.034;2022-12-29T11:32:49;2.85;;;2.17;;
10823;SDS011;39116;59.332;18.034;2022-12-29T11:35:17;2.72;;;2.00;;
10823;SDS011;39116;59.332;18.034;2022-12-29T11:37:53;2.95;;;2.35;;
10823;SDS011;39116;59.332;18.034;2022-12-29T11:40:18;2.40;;;2.13;;
10823;SDS011;39116;59.332;18.034;2022-12-29T11:42:43;3.17;;;2.28;;
10823;SDS011;39116;59.332;18.034;2022-12-29T11:45:13;2.83;;;2.50;;
10823;SDS011;39116;59.332;18.034;2022-12-29T11:47:35;2.75;;;2.33;;
10823;SDS011;39116;59.332;18.034;2022-12-29T11:49:58;4.60;;;2.90;;
10823;SDS011;39116;59.332;18.034;2022-12-29T11:52:21;3.97;;;2.22;;
10823;SDS011;39116;59.332;18.034;2022-12-29T11:54:43;3.90;;;2.38;;
10823;SDS011;39116;59.332;18.034;2022-12-29T11:57:09;4.20;;;2.47;;
10823;SDS011;39116;59.332;18.034;2022-12-29T11:59:37;2.63;;;2.38;;
10823;SDS011;39116;59.332;18.034;2022-12-29T12:02:00;3.13;;;2.30;;
10823;SDS011;39116;59.332;18.034;2022-12-29T12:04:24;2.78;;;2.30;;
10823;SDS011;39116;59.332;18.034;2022-12-29T12:06:48;3.33;;;2.50;;
10823;SDS011;39116;59.332;18.034;2022-12-29T12:09:14;3.10;;;2.67;;
10823;SDS011;39116;59.332;18.034;2022-12-29T12:11:37;3.28;;;2.92;;
10823;SDS011;39116;59.332;18.034;2022-12-29T12:14:04;4.15;;;2.70;;
10823;SDS011;39116;59.332;18.034;2022-12-29T12:16:31;3.05;;;2.67;;
10823;SDS011;39116;59.332;18.034;2022-12-29T12:18:55;3.92;;;2.55;;
10823;SDS011;39116;59.332;18.034;2022-12-29T12:21:20;3.42;;;2.50;;
10823;SDS011;39116;59.332;18.034;2022-12-29T12:23:46;2.88;;;2.45;;
10823;SDS011;39116;59.332;18.034;2022-12-29T12:26:10;3.53;;;2.70;;
10823;SDS011;39116;59.332;18.034;2022-12-29T12:28:34;3.17;;;2.88;;
10823;SDS011;39116;59.332;18.034;2022-12-29T12:30:57;2.70;;;2.50;;
10823;SDS011;39116;59.332;18.034;2022-12-29T12:33:24;2.72;;;2.38;;
10823;SDS011;39116;59.332;18.034;2022-12-29T12:35:49;3.55;;;2.40;;
10823;SDS011;39116;59.332;18.034;2022-12-29T12:38:16;2.95;;;2.70;;
10823;SDS011;39116;59.332;18.034;2022-12-29T12:40:48;2.67;;;2.33;;
10823;SDS011;39116;59.332;18.034;2022-12-29T12:43:18;4.00;;;2.85;;
10823;SDS011;39116;59.332;18.034;2022-12-29T12:45:45;3.13;;;2.38;;
10823;SDS011;39116;59.332;18.034;2022-12-29T12:48:13;2.60;;;2.40;;
10823;SDS011;39116;59.332;18.034;2022-12-29T12:50:45;2.90;;;2.60;;
10823;SDS011;39116;59.332;18.034;2022-12-29T12:53:22;3.53;;;2.70;;
10823;SDS011;39116;59.332;18.034;2022-12-29T12:55:50;4.72;;;2.83;;
10823;SDS011;39116;59.332;18.034;2022-12-29T12:58:16;3.05;;;2.75;;
10823;SDS011;39116;59.332;18.034;2022-12-29T13:00:42;3.13;;;2.83;;
10823;SDS011;39116;59.332;18.034;2022-12-29T13:03:09;3.13;;;2.78;;
10823;SDS011;39116;59.332;18.034;2022-12-29T13:05:37;3.92;;;2.97;;
10823;SDS011;39116;59.332;18.034;2022-12-29T13:08:06;4.18;;;2.67;;
10823;SDS011;39116;59.332;18.034;2022-12-29T13:10:36;3.63;;;3.25;;
10823;SDS011;39116;59.332;18.034;2022-12-29T13:13:04;4.35;;;2.80;;
10823;SDS011;39116;59.332;18.034;2022-12-29T13:15:36;3.35;;;2.85;;
10823;SDS011;39116;59.332;18.034;2022-12-29T13:18:03;3.10;;;2.80;;
10823;SDS011;39116;59.332;18.034;2022-12-29T13:20:29;3.90;;;2.97;;
10823;SDS011;39116;59.332;18.034;2022-12-29T13:22:54;4.13;;;2.80;;
10823;SDS011;39116;59.332;18.034;2022-12-29T13:25:29;3.13;;;2.83;;
10823;SDS011;39116;59.332;18.034;2022-12-29T13:27:53;4.57;;;2.80;;
10823;SDS011;39116;59.332;18.034;2022-12-29T13:30:17;3.55;;;2.63;;
10823;SDS011;39116;59.332;18.034;2022-12-29T13:32:43;3.03;;;2.50;;
10823;SDS011;39116;59.332;18.034;2022-12-29T13:35:15;2.97;;;2.67;;
10823;SDS011;39116;59.332;18.034;2022-12-29T13:37:44;3.10;;;2.70;;
10823;SDS011;39116;59.332;18.034;2022-12-29T13:40:10;3.47;;;2.30;;
10823;SDS011;39116;59.332;18.034;2022-12-29T13:42:35;2.83;;;2.40;;
10823;SDS011;39116;59.332;18.034;2022-12-29T13:44:57;3.45;;;2.08;;
10823;SDS011;39116;59.332;18.034;2022-12-29T13:47:21;1.92;;;1.83;;
10823;SDS011;39116;59.332;18.034;2022-12-29T13:49:46;2.45;;;1.75;;
10823;SDS011;39116;59.332;18.034;2022-12-29T13:52:09;2.13;;;1.92;;
10823;SDS011;39116;59.332;18.034;2022-12-29T13:54:35;1.90;;;1.80;;
10823;SDS011;39116;59.332;18.034;2022-12-29T13:57:01;2.10;;;1.80;;
10823;SDS011;39116;59.332;18.034;2022-12-29T13:59:27;2.28;;;1.70;;
10823;SDS011;39116;59.332;18.034;2022-12-29T14:01:58;1.88;;;1.70;;
10823;SDS011;39116;59.332;18.034;2022-12-29T14:04:22;1.67;;;1.58;;
10823;SDS011;39116;59.332;18.034;2022-12-29T14:06:44;4.47;;;2.00;;
10823;SDS011;39116;59.332;18.034;2022-12-29T14:09:06;2.05;;;1.75;;
10823;SDS011;39116;59.332;18.034;2022-12-29T14:11:48;1.98;;;1.77;;
10823;SDS011;39116;59.332;18.034;2022-12-29T14:14:11;2.92;;;1.95;;
10823;SDS011;39116;59.332;18.034;2022-12-29T14:16:34;2.50;;;2.20;;
10823;SDS011;39116;59.332;18.034;2022-12-29T14:19:06;3.00;;;2.28;;
10823;SDS011;39116;59.332;18.034;2022-12-29T14:21:31;3.58;;;2.08;;
10823;SDS011;39116;59.332;18.034;2022-12-29T14:23:53;3.72;;;2.90;;